Time;durP1;ratioP1;P1;durP2;ratioP2;P2;SDS_P1;SDS_P2;PMS_P1;PMS_P2;Temp;Humidity;BMP_temperature;BMP_pressure;BME280_temperature;BME280_humidity;BME280_pressure;Samples;Min_cycle;Max_cycle;Signal;HPM_P1;HPM_P2
2022/04/14 00:00:34;;;;;;;5.50;3.38;;;;;;;11.41;67.52;101503.13;2110518;28;20124;-74
2022/04/14 00:01:57;;;;;;;4.65;2.58;;;;;;;11.44;67.46;101502.28;2110584;28;20047;-74
2022/04/14 00:03:21;;;;;;;5.93;3.72;;;;;;;11.48;67.56;101504.16;2110490;28;20051;-74
2022/04/14 00:04:43;;;;;;;7.38;3.83;;;;;;;11.50;67.64;101499.78;2098429;28;20074;-74
2022/04/14 00:06:05;;;;;;;6.03;3.08;;;;;;;11.51;67.76;101502.47;2106672;28;20055;-74
2022/04/14 00:07:27;;;;;;;6.85;3.13;;;;;;;11.53;67.82;101502.53;2098942;28;20040;-74
2022/04/14 00:08:51;;;;;;;6.15;3.20;;;;;;;11.54;67.73;101499.03;2095780;28;20076;-74
2022/04/14 00:10:14;;;;;;;5.10;3.15;;;;;;;11.53;67.89;101494.59;2096132;28;20101;-75
2022/04/14 00:11:38;;;;;;;6.68;3.67;;;;;;;11.52;67.99;101495.44;2096160;28;20056;-75
2022/04/14 00:13:00;;;;;;;6.25;3.03;;;;;;;11.50;67.89;101498.03;2093077;28;20052;-74
2022/04/14 00:14:23;;;;;;;4.18;2.72;;;;;;;11.49;68.01;101492.72;2107949;28;20130;-75
2022/04/14 00:15:44;;;;;;;5.10;3.03;;;;;;;11.47;68.11;101498.00;2110393;28;20459;-74
2022/04/14 00:17:07;;;;;;;4.75;2.90;;;;;;;11.43;68.06;101501.41;2097374;28;20056;-74
2022/04/14 00:18:31;;;;;;;4.70;2.85;;;;;;;11.38;67.80;101496.84;2089513;28;20041;-74
2022/04/14 00:19:53;;;;;;;8.00;3.60;;;;;;;11.33;67.57;101498.50;2085650;28;20052;-75
2022/04/14 00:21:14;;;;;;;5.72;3.65;;;;;;;11.29;67.61;101489.59;2105444;28;20097;-74
2022/04/14 00:22:37;;;;;;;4.55;2.83;;;;;;;11.29;67.46;101486.94;2096621;28;20072;-74
2022/04/14 00:23:59;;;;;;;5.07;3.50;;;;;;;11.30;67.60;101479.91;2097848;28;20651;-74
2022/04/14 00:25:21;;;;;;;5.95;3.33;;;;;;;11.27;67.64;101482.50;2103717;28;20074;-74
2022/04/14 00:26:44;;;;;;;7.20;3.80;;;;;;;11.25;67.69;101478.91;2099083;28;20040;-74
2022/04/14 00:28:06;;;;;;;5.75;3.58;;;;;;;11.20;67.82;101478.81;2088165;28;20045;-74
2022/04/14 00:29:28;;;;;;;8.20;4.22;;;;;;;11.13;67.84;101483.06;2098140;28;20044;-74
2022/04/14 00:30:50;;;;;;;5.05;3.63;;;;;;;11.10;67.99;101492.63;2110926;28;20454;-74
2022/04/14 00:32:12;;;;;;;9.68;3.60;;;;;;;11.06;68.10;101496.06;2094883;28;20040;-74
2022/04/14 00:33:37;;;;;;;6.90;3.30;;;;;;;11.05;68.03;101494.28;2079404;28;20490;-75
2022/04/14 00:34:59;;;;;;;6.72;3.63;;;;;;;11.06;68.21;101486.41;2089164;28;20059;-74
2022/04/14 00:36:22;;;;;;;5.10;3.70;;;;;;;11.09;68.42;101483.81;2099495;28;20059;-74
2022/04/14 00:37:43;;;;;;;7.40;3.80;;;;;;;11.11;68.51;101484.75;2107799;28;20044;-73
2022/04/14 00:39:06;;;;;;;7.55;3.90;;;;;;;11.13;68.65;101476.88;2104896;28;20224;-74
2022/04/14 00:40:27;;;;;;;7.63;3.45;;;;;;;11.14;68.69;101470.75;2085771;28;20049;-74
2022/04/14 00:41:50;;;;;;;7.15;3.42;;;;;;;11.15;68.63;101470.78;2091090;28;20044;-74
2022/04/14 00:43:12;;;;;;;4.78;3.10;;;;;;;11.17;68.77;101478.72;2105367;28;20446;-74
2022/04/14 00:44:33;;;;;;;6.78;3.60;;;;;;;11.18;68.80;101480.50;2091643;28;20107;-74
2022/04/14 00:45:56;;;;;;;5.47;3.38;;;;;;;11.19;68.87;101483.19;2101779;28;20036;-74
2022/04/14 00:47:19;;;;;;;6.03;4.07;;;;;;;11.21;68.96;101479.72;2102143;28;20073;-74
2022/04/14 00:48:43;;;;;;;6.93;3.72;;;;;;;11.21;69.07;101491.19;2101842;28;20138;-74
2022/04/14 00:50:07;;;;;;;4.82;3.17;;;;;;;11.18;69.11;101473.47;2096335;28;20053;-74
2022/04/14 00:51:29;;;;;;;6.22;3.65;;;;;;;11.19;69.40;101470.00;2101191;28;20095;-75
2022/04/14 00:52:50;;;;;;;5.65;3.28;;;;;;;11.21;69.64;101463.84;2099817;28;20486;-74
2022/04/14 00:54:13;;;;;;;5.28;3.45;;;;;;;11.24;69.74;101461.28;2098893;28;20489;-74
2022/04/14 00:55:35;;;;;;;6.85;4.13;;;;;;;11.25;69.51;101469.25;2096585;28;20067;-74
2022/04/14 00:56:57;;;;;;;7.32;3.45;;;;;;;11.26;69.73;101468.38;2101719;28;20128;-74
2022/04/14 00:58:20;;;;;;;8.93;4.22;;;;;;;11.24;69.55;101472.72;2110596;28;20505;-74
2022/04/14 00:59:42;;;;;;;7.22;3.35;;;;;;;11.17;69.38;101474.34;2110048;28;20374;-74
2022/04/14 01:01:05;;;;;;;6.15;2.85;;;;;;;11.09;69.54;101472.38;2100742;28;20059;-74
2022/04/14 01:02:26;;;;;;;5.45;3.22;;;;;;;11.03;69.48;101465.16;2102228;28;20660;-74
2022/04/14 01:03:53;;;;;;;7.93;2.70;;;;;;;11.01;69.28;101466.91;2118675;28;20511;-74
2022/04/14 01:05:16;;;;;;;5.82;3.60;;;;;;;11.02;69.52;101473.09;2104644;28;20511;-74
2022/04/14 01:06:40;;;;;;;4.57;3.13;;;;;;;11.02;69.61;101471.34;2102812;28;20048;-74
2022/04/14 01:08:05;;;;;;;5.97;3.40;;;;;;;11.03;69.47;101469.56;2112975;28;20055;-74
2022/04/14 01:09:28;;;;;;;7.97;3.50;;;;;;;11.04;69.71;101466.97;2104558;28;20051;-74
2022/04/14 01:10:51;;;;;;;5.40;3.47;;;;;;;11.07;69.51;101471.44;2096099;28;20048;-74
2022/04/14 01:12:13;;;;;;;5.80;3.45;;;;;;;11.09;69.60;101470.59;2107495;28;20051;-74
2022/04/14 01:13:35;;;;;;;6.47;3.72;;;;;;;11.12;69.87;101468.06;2109881;28;20067;-74
2022/04/14 01:14:56;;;;;;;6.40;3.90;;;;;;;11.16;69.66;101469.00;2096329;28;20069;-74
2022/04/14 01:16:19;;;;;;;7.05;3.22;;;;;;;11.17;69.74;101479.63;2093390;28;20087;-74
2022/04/14 01:17:43;;;;;;;5.63;3.60;;;;;;;11.19;69.93;101477.03;2087665;28;20591;-74
2022/04/14 01:19:06;;;;;;;4.88;3.28;;;;;;;11.21;69.94;101472.69;2102039;28;20097;-74
2022/04/14 01:20:28;;;;;;;5.05;3.67;;;;;;;11.23;70.03;101477.97;2103257;28;20101;-74
2022/04/14 01:21:57;;;;;;;6.32;3.72;;;;;;;11.23;70.15;101478.88;2100794;28;20048;-74
2022/04/14 01:23:26;;;;;;;7.20;3.28;;;;;;;11.26;70.02;101480.72;2102950;28;20052;-74
2022/04/14 01:24:49;;;;;;;5.72;3.20;;;;;;;11.25;70.27;101474.53;2119383;28;20103;-74
2022/04/14 01:26:12;;;;;;;9.25;3.35;;;;;;;11.28;70.40;101471.06;2107136;28;20055;-74
2022/04/14 01:27:34;;;;;;;8.90;3.67;;;;;;;11.30;70.36;101470.25;2112394;28;20040;-74
2022/04/14 01:28:57;;;;;;;6.82;3.40;;;;;;;11.32;70.26;101470.28;2090408;28;20052;-74
2022/04/14 01:30:19;;;;;;;6.30;3.83;;;;;;;11.31;70.36;101472.03;2094649;28;20036;-74
2022/04/14 01:31:42;;;;;;;5.85;3.20;;;;;;;11.29;70.44;101475.50;2101912;28;20075;-74
2022/04/14 01:33:05;;;;;;;4.70;3.13;;;;;;;11.27;70.33;101485.13;2094697;28;20121;-74
2022/04/14 01:34:29;;;;;;;6.25;3.55;;;;;;;11.22;70.22;101484.16;2100535;28;20090;-74
2022/04/14 01:35:52;;;;;;;7.85;3.00;;;;;;;11.13;70.03;101480.41;2097297;28;20052;-74
2022/04/14 01:37:13;;;;;;;4.90;3.00;;;;;;;11.08;70.00;101484.69;2108905;28;20043;-75
2022/04/14 01:38:38;;;;;;;8.75;3.70;;;;;;;11.06;70.02;101482.84;2101140;28;20106;-74
2022/04/14 01:40:02;;;;;;;4.53;2.90;;;;;;;11.05;70.07;101489.00;2101624;28;20082;-74
2022/04/14 01:41:24;;;;;;;6.72;3.28;;;;;;;11.02;69.94;101488.94;2095367;28;20040;-74
2022/04/14 01:42:47;;;;;;;7.03;3.85;;;;;;;11.01;70.01;101488.03;2097555;28;20048;-74
2022/04/14 01:44:10;;;;;;;6.05;3.17;;;;;;;11.01;69.98;101488.03;2092615;28;20041;-74
2022/04/14 01:45:33;;;;;;;5.22;3.20;;;;;;;11.01;70.12;101485.41;2100857;28;20454;-74
2022/04/14 01:46:54;;;;;;;4.60;3.22;;;;;;;11.01;70.17;101480.09;2097279;28;20108;-74
2022/04/14 01:48:16;;;;;;;8.77;4.05;;;;;;;11.03;70.24;101480.13;2107605;28;20146;-74
2022/04/14 01:49:38;;;;;;;7.57;3.40;;;;;;;11.04;70.24;101477.53;2107692;28;20189;-74
2022/04/14 01:51:00;;;;;;;6.63;3.28;;;;;;;11.05;70.20;101479.31;2094865;28;20056;-74
2022/04/14 01:52:22;;;;;;;6.10;3.17;;;;;;;11.07;70.28;101482.91;2086665;28;20063;-74
2022/04/14 01:53:44;;;;;;;8.25;3.38;;;;;;;11.08;70.30;101481.16;2097026;28;20044;-75
2022/04/14 01:55:10;;;;;;;5.57;3.35;;;;;;;11.11;70.53;101490.03;2110272;28;20043;-74
2022/04/14 01:56:33;;;;;;;8.95;3.20;;;;;;;11.12;70.52;101496.22;2091297;28;20653;-74
2022/04/14 01:57:55;;;;;;;8.02;3.22;;;;;;;11.12;70.25;101483.91;2091984;28;20048;-74
2022/04/14 01:59:16;;;;;;;4.68;2.83;;;;;;;11.12;70.29;101486.56;2097623;28;20789;-74
2022/04/14 02:00:39;;;;;;;4.40;2.72;;;;;;;11.12;70.26;101485.66;2097778;28;20068;-74
2022/04/14 02:02:00;;;;;;;7.93;3.38;;;;;;;11.12;70.44;101483.91;2108749;28;20047;-74
2022/04/14 02:03:23;;;;;;;5.97;2.75;;;;;;;11.13;70.34;101490.97;2109346;28;20058;-74
2022/04/14 02:04:44;;;;;;;5.25;3.42;;;;;;;11.16;70.36;101485.75;2111621;28;20367;-74
2022/04/14 02:06:07;;;;;;;6.43;3.55;;;;;;;11.19;70.43;101482.31;2103059;28;20055;-74
2022/04/14 02:07:28;;;;;;;6.80;3.38;;;;;;;11.19;70.31;101485.84;2101080;28;20421;-74
2022/04/14 02:08:51;;;;;;;5.57;3.38;;;;;;;11.19;70.36;101483.19;2084792;28;20037;-74
2022/04/14 02:10:15;;;;;;;7.07;3.47;;;;;;;11.20;70.24;101473.53;2094480;28;20048;-74
2022/04/14 02:11:36;;;;;;;6.40;3.47;;;;;;;11.18;70.16;101478.78;2103179;28;20135;-74
2022/04/14 02:12:59;;;;;;;5.38;3.70;;;;;;;11.18;70.26;101473.47;2113779;28;20466;-74
2022/04/14 02:14:20;;;;;;;6.57;3.45;;;;;;;11.21;70.31;101477.06;2096718;28;20044;-75
2022/04/14 02:15:43;;;;;;;7.63;3.67;;;;;;;11.21;70.27;101485.00;2091418;28;20146;-73
2022/04/14 02:17:06;;;;;;;6.00;3.55;;;;;;;11.21;70.09;101479.72;2101888;28;20040;-74
2022/04/14 02:18:29;;;;;;;5.32;3.15;;;;;;;11.21;70.24;101474.44;2117621;27;20065;-74
2022/04/14 02:19:51;;;;;;;6.15;3.20;;;;;;;11.20;70.34;101473.53;2091518;28;20048;-74
2022/04/14 02:21:14;;;;;;;5.80;2.80;;;;;;;11.20;70.23;101465.59;2108678;28;20097;-75
2022/04/14 02:22:39;;;;;;;4.90;3.00;;;;;;;11.18;70.31;101460.28;2099838;28;20058;-74
2022/04/14 02:24:02;;;;;;;4.55;3.00;;;;;;;11.14;70.34;101463.72;2111097;27;20052;-75
2022/04/14 02:25:26;;;;;;;6.57;2.95;;;;;;;11.14;70.39;101474.28;2091445;28;20485;-74
2022/04/14 02:26:47;;;;;;;3.90;2.80;;;;;;;11.09;70.39;101470.59;2103064;28;20112;-75
2022/04/14 02:28:09;;;;;;;5.30;3.50;;;;;;;11.06;70.38;101481.13;2114232;28;20470;-75
2022/04/14 02:29:32;;;;;;;4.70;2.63;;;;;;;10.96;70.41;101473.78;2090300;28;20049;-74
2022/04/14 02:30:53;;;;;;;5.35;2.88;;;;;;;10.89;70.06;101471.88;2101236;28;20052;-75
2022/04/14 02:32:16;;;;;;;4.38;2.95;;;;;;;10.83;70.16;101470.84;2119791;27;20043;-75
2022/04/14 02:33:37;;;;;;;6.85;3.08;;;;;;;10.79;70.09;101469.84;2094166;28;20492;-74
2022/04/14 02:34:59;;;;;;;4.93;2.80;;;;;;;10.76;70.06;101469.78;2094545;28;20056;-74
2022/04/14 02:36:23;;;;;;;8.05;3.50;;;;;;;10.76;70.09;101472.41;2108516;28;20135;-74
2022/04/14 02:37:46;;;;;;;6.47;3.42;;;;;;;10.77;70.08;101471.53;2102712;28;20052;-74
2022/04/14 02:39:07;;;;;;;7.50;3.95;;;;;;;10.77;70.36;101471.53;2108390;28;20068;-74
2022/04/14 02:40:31;;;;;;;6.47;3.17;;;;;;;10.81;70.32;101470.78;2103653;28;20140;-74
2022/04/14 02:41:52;;;;;;;5.97;3.67;;;;;;;10.83;70.32;101471.69;2090633;28;20078;-75
2022/04/14 02:43:15;;;;;;;7.47;3.50;;;;;;;10.85;70.52;101469.09;2111295;28;20048;-74
2022/04/14 02:44:36;;;;;;;7.28;3.78;;;;;;;10.87;70.30;101473.59;2099696;28;20040;-74
2022/04/14 02:45:59;;;;;;;8.18;3.58;;;;;;;10.88;70.54;101470.09;2109916;27;20058;-74
2022/04/14 02:47:21;;;;;;;5.75;3.90;;;;;;;10.91;70.45;101475.44;2091453;28;20040;-74
2022/04/14 02:48:43;;;;;;;5.78;3.70;;;;;;;10.92;70.44;101476.31;2094601;28;20055;-74
2022/04/14 02:50:05;;;;;;;5.55;3.65;;;;;;;10.95;70.62;101468.50;2091707;28;20472;-75
2022/04/14 02:51:28;;;;;;;7.57;2.95;;;;;;;10.95;70.58;101468.50;2091416;28;20549;-74
2022/04/14 02:52:50;;;;;;;7.18;3.13;;;;;;;10.95;70.60;101477.31;2100222;28;20088;-74
2022/04/14 02:54:12;;;;;;;;;;;;;;;10.97;70.51;101478.22;2106385;28;20047;-75
2022/04/14 02:55:35;;;;;;;6.22;4.00;;;;;;;10.96;70.60;101473.78;2111293;28;19919;-74
2022/04/14 02:56:58;;;;;;;6.57;3.92;;;;;;;10.97;70.52;101475.59;2102864;28;20052;-74
2022/04/14 02:58:20;;;;;;;12.63;4.55;;;;;;;10.97;70.66;101472.94;2108180;28;20043;-74
2022/04/14 02:59:43;;;;;;;5.95;3.28;;;;;;;10.95;70.68;101479.97;2111209;28;20094;-74
2022/04/14 03:01:05;;;;;;;7.50;4.15;;;;;;;10.95;70.83;101472.03;2111317;28;20138;-74
2022/04/14 03:02:27;;;;;;;8.15;3.47;;;;;;;10.95;70.68;101473.78;2103238;28;20142;-75
2022/04/14 03:03:50;;;;;;;11.63;3.55;;;;;;;10.94;70.75;101480.81;2093667;28;20074;-74
2022/04/14 03:05:12;;;;;;;6.25;3.85;;;;;;;10.94;70.83;101483.44;2114960;27;20058;-74
2022/04/14 03:06:35;;;;;;;6.40;3.20;;;;;;;10.95;70.93;101481.69;2091136;28;20048;-75
2022/04/14 03:07:57;;;;;;;5.32;2.90;;;;;;;10.95;70.90;101479.97;2091706;28;20064;-74
2022/04/14 03:09:18;;;;;;;7.53;3.20;;;;;;;10.96;70.93;101486.13;2077869;28;20054;-74
2022/04/14 03:10:42;;;;;;;11.20;3.50;;;;;;;10.96;71.03;101484.34;2109423;27;20381;-74
2022/04/14 03:12:06;;;;;;;5.97;3.22;;;;;;;10.95;71.06;101479.97;2111388;28;20518;-74
2022/04/14 03:13:29;;;;;;;6.53;2.90;;;;;;;10.93;70.96;101479.00;2088567;28;20521;-74
2022/04/14 03:14:51;;;;;;;9.02;3.58;;;;;;;10.94;71.22;101483.44;2094151;28;20114;-75
2022/04/14 03:16:14;;;;;;;8.48;3.70;;;;;;;10.97;71.24;101485.25;2094318;28;20067;-75
2022/04/14 03:17:36;;;;;;;6.60;3.38;;;;;;;10.97;71.18;101483.50;2077819;28;20049;-74
2022/04/14 03:18:59;;;;;;;9.07;3.42;;;;;;;10.98;71.30;101487.94;2089005;28;20052;-74
2022/04/14 03:20:20;;;;;;;7.00;2.88;;;;;;;10.98;71.26;101485.31;2113992;27;20043;-75
2022/04/14 03:21:42;;;;;;;4.80;3.13;;;;;;;10.97;71.11;101478.22;2107760;28;20499;-74
2022/04/14 03:23:06;;;;;;;8.13;3.80;;;;;;;10.99;71.41;101484.44;2103611;28;20073;-74
2022/04/14 03:24:27;;;;;;;7.95;3.22;;;;;;;11.00;71.34;101491.53;2096418;28;20040;-74
2022/04/14 03:25:52;;;;;;;6.10;3.65;;;;;;;11.01;71.48;101501.25;2110789;28;20048;-74
2022/04/14 03:27:13;;;;;;;6.30;3.72;;;;;;;11.03;71.41;101501.25;2102500;28;20056;-74
2022/04/14 03:28:37;;;;;;;7.70;3.15;;;;;;;11.05;71.65;101494.28;2108135;28;20039;-75
2022/04/14 03:29:58;;;;;;;4.95;3.17;;;;;;;11.07;71.59;101495.22;2094898;28;20049;-74
2022/04/14 03:31:20;;;;;;;7.85;3.47;;;;;;;11.10;71.67;101503.22;2102663;28;20047;-74
2022/04/14 03:32:43;;;;;;;6.07;2.95;;;;;;;11.13;71.45;101495.38;2119017;27;20129;-74
2022/04/14 03:34:05;;;;;;;7.57;3.22;;;;;;;11.16;71.58;101493.69;2107074;28;20048;-75
2022/04/14 03:35:28;;;;;;;8.57;3.55;;;;;;;11.21;71.53;101487.63;2098622;28;20048;-74
2022/04/14 03:36:50;;;;;;;7.32;3.50;;;;;;;11.27;71.61;101483.41;2072397;28;20064;-75
2022/04/14 03:38:13;;;;;;;8.73;3.65;;;;;;;11.31;71.69;101489.63;2091141;28;20153;-74
2022/04/14 03:39:34;;;;;;;5.95;3.60;;;;;;;11.32;71.49;101483.50;2102516;28;20122;-74
2022/04/14 03:40:59;;;;;;;8.43;3.70;;;;;;;11.31;71.54;101492.28;2102030;28;20044;-75
2022/04/14 03:42:20;;;;;;;10.13;3.40;;;;;;;11.30;71.14;101495.78;2087248;28;20041;-74
2022/04/14 03:43:43;;;;;;;9.73;3.85;;;;;;;11.28;71.41;101494.88;2102377;28;20052;-74
2022/04/14 03:45:07;;;;;;;6.78;3.22;;;;;;;11.25;71.23;101498.31;2084575;28;20103;-74
2022/04/14 03:46:31;;;;;;;5.20;3.22;;;;;;;11.16;71.22;101495.44;2083387;28;20072;-74
2022/04/14 03:47:52;;;;;;;6.93;3.30;;;;;;;11.06;71.05;101504.88;2094038;28;20052;-74
2022/04/14 03:49:15;;;;;;;5.30;3.40;;;;;;;11.02;70.97;101508.31;2080430;28;20156;-74
2022/04/14 03:50:37;;;;;;;6.68;3.17;;;;;;;10.98;70.88;101506.44;2104558;28;20040;-74
2022/04/14 03:51:59;;;;;;;4.70;2.95;;;;;;;10.96;70.93;101504.63;2100514;28;20417;-74
2022/04/14 03:53:21;;;;;;;9.10;3.17;;;;;;;10.92;70.89;101508.91;2094103;28;20519;-75
2022/04/14 03:54:43;;;;;;;7.40;3.15;;;;;;;10.92;71.09;101511.56;2085243;28;20603;-74
2022/04/14 03:56:08;;;;;;;9.80;3.42;;;;;;;10.92;71.04;101508.91;2085034;28;20049;-74
2022/04/14 03:57:29;;;;;;;5.97;3.22;;;;;;;10.96;71.20;101502.84;2092071;28;20591;-74
2022/04/14 03:58:51;;;;;;;7.07;3.47;;;;;;;11.00;71.56;101503.84;2099299;28;20405;-74
2022/04/14 04:00:15;;;;;;;7.05;3.90;;;;;;;11.07;71.65;101497.88;2092630;28;20505;-74
2022/04/14 04:01:37;;;;;;;7.65;3.00;;;;;;;11.13;71.73;101500.66;2096308;28;20052;-75
2022/04/14 04:02:59;;;;;;;7.45;3.72;;;;;;;11.22;71.89;101507.94;2098050;28;20142;-74
2022/04/14 04:04:22;;;;;;;6.15;3.60;;;;;;;11.30;72.11;101512.53;2093760;28;20486;-75
2022/04/14 04:05:44;;;;;;;9.65;3.72;;;;;;;11.33;72.35;101519.66;2085762;28;20143;-74
2022/04/14 04:07:06;;;;;;;7.03;3.13;;;;;;;11.36;72.26;101517.06;2097311;28;20125;-74
2022/04/14 04:08:28;;;;;;;7.68;3.35;;;;;;;11.42;72.13;101518.09;2097889;28;20045;-74
2022/04/14 04:09:51;;;;;;;7.07;3.40;;;;;;;11.49;72.27;101505.94;2108870;28;20108;-74
2022/04/14 04:11:15;;;;;;;7.07;3.35;;;;;;;11.61;72.31;101508.88;2098954;28;20475;-74
2022/04/14 04:12:37;;;;;;;7.38;4.07;;;;;;;11.74;72.31;101508.34;2079975;28;20045;-75
2022/04/14 04:14:00;;;;;;;15.00;5.22;;;;;;;11.89;72.41;101499.84;2085501;28;20064;-74
2022/04/14 04:15:22;;;;;;;7.47;4.25;;;;;;;12.03;72.46;101497.50;2101390;28;20877;-75
2022/04/14 04:16:45;;;;;;;9.82;3.60;;;;;;;12.16;72.37;101499.53;2082528;28;20092;-74
2022/04/14 04:18:07;;;;;;;8.75;3.88;;;;;;;12.26;72.38;101494.50;2085377;28;20049;-74
2022/04/14 04:19:30;;;;;;;7.68;3.40;;;;;;;12.37;72.51;101497.34;2079969;28;20042;-74
2022/04/14 04:20:52;;;;;;;7.97;3.22;;;;;;;12.47;72.44;101501.06;2084763;28;20668;-74
2022/04/14 04:22:14;;;;;;;7.95;3.30;;;;;;;12.50;72.50;101504.66;2090783;28;20084;-72
2022/04/14 04:23:37;;;;;;;8.55;3.53;;;;;;;12.57;72.17;101506.56;2097957;28;20044;-75
2022/04/14 04:25:00;;;;;;;8.00;3.00;;;;;;;12.63;72.08;101498.72;2103392;28;20056;-74
2022/04/14 04:26:22;;;;;;;10.43;3.58;;;;;;;12.67;72.05;101510.28;2095940;28;20163;-74
2022/04/14 04:27:45;;;;;;;6.90;3.55;;;;;;;12.69;71.78;101516.50;2104926;28;20088;-74
2022/04/14 04:29:07;;;;;;;8.48;4.22;;;;;;;12.75;71.69;101508.66;2099097;28;20573;-75
2022/04/14 04:30:29;;;;;;;;;;;;;;;12.85;71.66;101509.75;2086991;28;20045;-74
2022/04/14 04:31:52;;;;;;;9.90;3.53;;;;;;;12.96;71.63;101516.13;2096554;28;19927;-75
2022/04/14 04:33:14;;;;;;;7.22;3.72;;;;;;;13.09;71.53;101512.81;2088163;28;20087;-74
2022/04/14 04:34:36;;;;;;;9.25;5.35;;;;;;;13.22;71.58;101516.59;2085022;28;20418;-74
2022/04/14 04:35:58;;;;;;;6.82;3.92;;;;;;;13.34;71.46;101514.16;2107157;27;20553;-74
2022/04/14 04:37:21;;;;;;;7.78;4.18;;;;;;;13.48;71.45;101508.22;2115268;28;20044;-74
2022/04/14 04:38:44;;;;;;;8.65;3.45;;;;;;;13.62;71.20;101519.03;2090730;28;20048;-73
2022/04/14 04:40:06;;;;;;;9.88;4.55;;;;;;;13.73;71.06;101514.78;2109941;28;20073;-74
2022/04/14 04:41:31;;;;;;;8.27;3.78;;;;;;;13.84;70.83;101520.25;2098817;28;20516;-73
2022/04/14 04:42:52;;;;;;;13.75;5.22;;;;;;;13.88;70.59;101516.75;2117673;28;20092;-75
2022/04/14 04:44:14;;;;;;;6.53;3.15;;;;;;;13.88;70.29;101517.66;2100818;28;20048;-75
2022/04/14 04:45:36;;;;;;;8.75;3.40;;;;;;;13.89;69.98;101514.13;2088168;28;20116;-75
2022/04/14 04:46:58;;;;;;;9.35;3.20;;;;;;;13.94;69.56;101512.44;2098478;28;20060;-75
2022/04/14 04:48:21;;;;;;;10.60;2.85;;;;;;;14.05;69.04;101517.88;2099671;28;20077;-75
2022/04/14 04:49:43;;;;;;;6.32;2.72;;;;;;;14.15;68.56;101522.47;2096515;28;20076;-76
2022/04/14 04:51:05;;;;;;;4.40;2.92;;;;;;;14.28;68.46;101528.81;2109537;28;20579;-75
2022/04/14 04:52:27;;;;;;;6.10;3.08;;;;;;;14.42;68.17;101527.25;2108195;28;20040;-75
2022/04/14 04:53:50;;;;;;;9.63;3.70;;;;;;;14.60;68.07;101529.22;2098391;28;20053;-75
2022/04/14 04:55:13;;;;;;;10.48;3.15;;;;;;;14.77;67.72;101517.91;2107529;28;20050;-75
2022/04/14 04:56:37;;;;;;;11.40;2.83;;;;;;;14.95;67.28;101516.31;2104910;28;20065;-75
2022/04/14 04:57:58;;;;;;;4.22;2.67;;;;;;;15.09;67.04;101507.63;2100456;28;20102;-75
2022/04/14 04:59:21;;;;;;;5.35;2.50;;;;;;;15.26;66.65;101521.03;2107472;28;20035;-75
2022/04/14 05:00:44;;;;;;;6.55;2.70;;;;;;;15.42;66.30;101520.31;2108128;28;20049;-75
2022/04/14 05:02:07;;;;;;;5.20;2.42;;;;;;;15.59;65.67;101528.44;2108706;28;20052;-75
2022/04/14 05:03:28;;;;;;;5.38;2.60;;;;;;;15.76;65.52;101523.22;2109009;28;20039;-75
2022/04/14 05:04:51;;;;;;;8.63;3.22;;;;;;;15.86;65.04;101528.63;2087273;28;20053;-74
2022/04/14 05:06:14;;;;;;;4.45;2.28;;;;;;;15.98;64.60;101521.59;2102002;28;20094;-73
2022/04/14 05:07:36;;;;;;;4.38;2.38;;;;;;;16.13;64.45;101519.91;2095862;28;20063;-74
2022/04/14 05:08:59;;;;;;;8.70;2.50;;;;;;;16.27;64.18;101515.53;2106343;28;20055;-74
2022/04/14 05:10:20;;;;;;;5.10;3.05;;;;;;;16.41;63.39;101514.72;2108381;28;20143;-74
2022/04/14 05:11:44;;;;;;;7.07;3.00;;;;;;;16.53;63.03;101515.66;2111557;28;20039;-73
2022/04/14 05:13:07;;;;;;;4.10;2.30;;;;;;;16.66;62.49;101511.28;2111920;28;20278;-73
2022/04/14 05:14:30;;;;;;;4.18;2.50;;;;;;;16.82;61.98;101507.72;2103672;28;20042;-73
2022/04/14 05:15:52;;;;;;;4.93;2.33;;;;;;;16.95;61.24;101503.31;2097674;28;20044;-74
2022/04/14 05:17:15;;;;;;;8.38;2.80;;;;;;;17.06;60.58;101518.47;2092136;28;20063;-73
2022/04/14 05:18:39;;;;;;;10.25;2.70;;;;;;;17.23;60.20;101523.81;2094877;28;20109;-74
2022/04/14 05:20:00;;;;;;;4.65;2.60;;;;;;;17.41;59.60;101529.13;2103691;28;20048;-73
2022/04/14 05:21:23;;;;;;;8.30;2.83;;;;;;;17.57;58.81;101534.47;2095850;28;20055;-74
2022/04/14 05:22:58;;;;;;;6.25;2.50;;;;;;;17.72;58.42;101538.03;2094416;28;20052;-73
2022/04/14 05:24:21;;;;;;;6.72;2.70;;;;;;;17.93;57.95;101526.44;2088759;28;20118;-74
2022/04/14 05:25:43;;;;;;;5.47;2.78;;;;;;;18.13;57.25;101523.72;2094750;28;20048;-74
2022/04/14 05:27:08;;;;;;;4.15;2.35;;;;;;;18.30;56.55;101519.22;2094968;28;20032;-74
2022/04/14 05:28:30;;;;;;;5.75;2.78;;;;;;;18.47;55.91;101519.13;2102882;28;20071;-72
2022/04/14 05:29:51;;;;;;;6.50;2.25;;;;;;;18.64;55.32;101523.50;2095785;28;20041;-73
2022/04/14 05:31:14;;;;;;;4.72;2.35;;;;;;;18.74;54.73;101515.44;2105697;28;20469;-73
2022/04/14 05:32:36;;;;;;;5.53;2.35;;;;;;;18.88;53.94;101524.28;2104257;28;20060;-73
2022/04/14 05:33:59;;;;;;;8.48;2.33;;;;;;;18.97;53.36;101517.06;2097857;28;20489;-73
2022/04/14 05:35:21;;;;;;;10.48;3.22;;;;;;;19.06;52.67;101517.03;2099852;28;20046;-73
2022/04/14 05:36:44;;;;;;;5.57;2.15;;;;;;;19.11;52.13;101519.66;2090822;28;20056;-73
2022/04/14 05:38:07;;;;;;;6.28;2.53;;;;;;;19.21;51.92;101517.81;2107146;28;20076;-73
2022/04/14 05:39:30;;;;;;;6.18;2.22;;;;;;;19.34;51.26;101525.75;2091374;28;20775;-73
2022/04/14 05:40:53;;;;;;;6.93;2.47;;;;;;;19.42;51.05;101528.38;2092516;28;20048;-73
2022/04/14 05:42:17;;;;;;;5.22;2.53;;;;;;;19.56;50.52;101530.97;2081120;28;20095;-73
2022/04/14 05:43:39;;;;;;;9.75;2.50;;;;;;;19.70;49.81;101537.03;2095852;28;20036;-73
2022/04/14 05:45:02;;;;;;;5.50;2.25;;;;;;;19.76;49.04;101532.53;2105981;28;20089;-72
2022/04/14 05:46:25;;;;;;;7.65;2.13;;;;;;;19.83;48.70;101530.66;2091339;28;20061;-72
2022/04/14 05:47:48;;;;;;;5.43;2.70;;;;;;;19.96;48.66;101528.75;2108575;28;20108;-72
2022/04/14 05:49:10;;;;;;;7.85;2.50;;;;;;;20.06;47.48;101530.44;2100078;28;20452;-72
2022/04/14 05:50:32;;;;;;;7.00;2.70;;;;;;;20.11;47.22;101531.28;2095065;28;20048;-71
2022/04/14 05:51:55;;;;;;;3.97;1.95;;;;;;;20.25;47.05;101532.00;2091089;28;20650;-73
2022/04/14 05:53:20;;;;;;;5.57;2.17;;;;;;;20.31;46.05;101526.56;2078537;28;20514;-72
2022/04/14 05:54:43;;;;;;;5.22;1.80;;;;;;;20.22;45.69;101522.19;2101250;28;20131;-73
2022/04/14 05:56:06;;;;;;;6.40;2.30;;;;;;;20.20;45.61;101520.44;2099182;28;20048;-73
2022/04/14 05:57:30;;;;;;;6.35;2.60;;;;;;;20.33;45.55;101514.06;2094767;28;20149;-72
2022/04/14 05:58:54;;;;;;;4.97;2.30;;;;;;;20.51;45.14;101511.13;2104068;28;20570;-72
2022/04/14 06:00:17;;;;;;;5.22;2.25;;;;;;;20.62;44.76;101521.72;2100012;28;20089;-72
2022/04/14 06:01:39;;;;;;;9.75;2.00;;;;;;;20.75;44.89;101525.13;2088899;28;20037;-73
2022/04/14 06:03:03;;;;;;;4.93;2.30;;;;;;;20.85;44.29;101534.84;2078467;28;20075;-72
2022/04/14 06:04:24;;;;;;;6.85;2.17;;;;;;;20.95;44.10;101540.03;2088703;28;20056;-72
2022/04/14 06:05:47;;;;;;;5.88;2.08;;;;;;;20.99;42.75;101532.84;2110758;28;20047;-72
2022/04/14 06:07:10;;;;;;;4.57;2.08;;;;;;;20.99;42.38;101539.09;2091700;28;20513;-72
2022/04/14 06:08:32;;;;;;;3.50;2.10;;;;;;;20.98;42.39;101537.31;2083849;28;20502;-72
2022/04/14 06:09:55;;;;;;;4.75;2.47;;;;;;;21.05;41.79;101535.44;2100070;28;20147;-72
2022/04/14 06:11:17;;;;;;;3.67;2.10;;;;;;;21.05;41.72;101535.44;2105768;28;20461;-72
2022/04/14 06:12:41;;;;;;;4.95;1.90;;;;;;;21.12;41.48;101531.75;2091690;28;20590;-72
2022/04/14 06:14:04;;;;;;;4.43;2.17;;;;;;;21.14;41.14;101537.94;2096843;28;20319;-72
2022/04/14 06:15:27;;;;;;;5.15;2.05;;;;;;;21.04;41.17;101536.34;2086473;28;20041;-72
2022/04/14 06:16:50;;;;;;;5.20;2.08;;;;;;;21.06;41.20;101537.22;2092696;28;20044;-72
2022/04/14 06:18:12;;;;;;;5.45;1.80;;;;;;;21.09;40.58;101534.47;2103245;28;20524;-72
2022/04/14 06:19:34;;;;;;;3.53;2.10;;;;;;;21.13;40.09;101541.56;2096931;28;20048;-72
2022/04/14 06:20:57;;;;;;;6.97;1.90;;;;;;;21.19;39.89;101546.88;2100457;28;20051;-71
2022/04/14 06:22:19;;;;;;;6.07;2.28;;;;;;;21.29;39.29;101559.25;2102838;28;20074;-72
2022/04/14 06:23:42;;;;;;;9.23;2.65;;;;;;;21.44;39.36;101550.94;2092351;28;20040;-72